sensor_id;sensor_type;location;lat;lon;timestamp;temperature;humidity
40589;DHT22;26297;49.450;6.640;2023-08-07T00:01:46;17.80;99.90
40589;DHT22;26297;49.450;6.640;2023-08-07T00:04:49;17.80;99.90
40589;DHT22;26297;49.450;6.640;2023-08-07T00:07:55;17.80;99.90
40589;DHT22;26297;49.450;6.640;2023-08-07T00:11:10;17.70;99.90
40589;DHT22;26297;49.450;6.640;2023-08-07T00:14:20;17.70;99.90
40589;DHT22;26297;49.450;6.640;2023-08-07T00:17:27;17.70;99.90
40589;DHT22;26297;49.450;6.640;2023-08-07T00:20:35;17.70;99.90
40589;DHT22;26297;49.450;6.640;2023-08-07T00:23:47;17.70;99.90
40589;DHT22;26297;49.450;6.640;2023-08-07T00:27:00;17.70;99.90
40589;DHT22;26297;49.450;6.640;2023-08-07T00:30:06;17.70;99.90
40589;DHT22;26297;49.450;6.640;2023-08-07T00:33:13;17.70;99.90
40589;DHT22;26297;49.450;6.640;2023-08-07T00:36:22;17.70;99.90
40589;DHT22;26297;49.450;6.640;2023-08-07T00:39:28;17.60;99.90
40589;DHT22;26297;49.450;6.640;2023-08-07T00:42:39;17.60;99.90
40589;DHT22;26297;49.450;6.640;2023-08-07T00:45:48;17.60;99.90
40589;DHT22;26297;49.450;6.640;2023-08-07T00:48:57;17.60;99.90
40589;DHT22;26297;49.450;6.640;2023-08-07T00:52:03;17.50;99.90
40589;DHT22;26297;49.450;6.640;2023-08-07T00:55:10;17.50;99.90
40589;DHT22;26297;49.450;6.640;2023-08-07T00:58:21;17.60;99.90
40589;DHT22;26297;49.450;6.640;2023-08-07T01:01:30;17.60;99.90
40589;DHT22;26297;49.450;6.640;2023-08-07T01:04:36;17.60;99.90
40589;DHT22;26297;49.450;6.640;2023-08-07T01:07:50;17.70;99.90
40589;DHT22;26297;49.450;6.640;2023-08-07T01:14:30;17.70;99.90
40589;DHT22;26297;49.450;6.640;2023-08-07T01:17:39;17.80;99.90
40589;DHT22;26297;49.450;6.640;2023-08-07T01:20:45;17.80;99.90
40589;DHT22;26297;49.450;6.640;2023-08-07T01:24:01;17.80;99.90
40589;DHT22;26297;49.450;6.640;2023-08-07T01:30:36;17.70;99.90
40589;DHT22;26297;49.450;6.640;2023-08-07T01:33:47;17.70;99.90
40589;DHT22;26297;49.450;6.640;2023-08-07T01:37:00;17.70;99.90
40589;DHT22;26297;49.450;6.640;2023-08-07T01:40:30;17.70;99.90
40589;DHT22;26297;49.450;6.640;2023-08-07T01:43:36;17.70;99.90
40589;DHT22;26297;49.450;6.640;2023-08-07T01:46:50;17.70;99.90
40589;DHT22;26297;49.450;6.640;2023-08-07T01:50:03;17.70;99.90
40589;DHT22;26297;49.450;6.640;2023-08-07T01:53:17;17.70;99.90
40589;DHT22;26297;49.450;6.640;2023-08-07T01:56:36;17.70;99.90
40589;DHT22;26297;49.450;6.640;2023-08-07T01:59:41;17.70;99.90
40589;DHT22;26297;49.450;6.640;2023-08-07T02:02:56;17.70;99.90
40589;DHT22;26297;49.450;6.640;2023-08-07T02:06:07;17.70;99.90
40589;DHT22;26297;49.450;6.640;2023-08-07T02:09:24;17.70;99.90
40589;DHT22;26297;49.450;6.640;2023-08-07T02:12:33;17.70;99.90
40589;DHT22;26297;49.450;6.640;2023-08-07T02:15:53;17.70;99.90
40589;DHT22;26297;49.450;6.640;2023-08-07T02:19:04;17.70;99.90
40589;DHT22;26297;49.450;6.640;2023-08-07T02:22:10;17.70;99.90
40589;DHT22;26297;49.450;6.640;2023-08-07T02:25:40;17.70;99.90
40589;DHT22;26297;49.450;6.640;2023-08-07T02:28:57;17.70;99.90
40589;DHT22;26297;49.450;6.640;2023-08-07T02:32:30;17.70;99.90
40589;DHT22;26297;49.450;6.640;2023-08-07T02:35:43;17.70;99.90
40589;DHT22;26297;49.450;6.640;2023-08-07T02:38:57;17.70;99.90
40589;DHT22;26297;49.450;6.640;2023-08-07T02:42:08;17.60;99.90
40589;DHT22;26297;49.450;6.640;2023-08-07T02:45:30;17.60;99.90
40589;DHT22;26297;49.450;6.640;2023-08-07T02:48:33;17.70;99.90
40589;DHT22;26297;49.450;6.640;2023-08-07T02:51:45;17.60;99.90
40589;DHT22;26297;49.450;6.640;2023-08-07T02:54:56;17.60;99.90
40589;DHT22;26297;49.450;6.640;2023-08-07T02:58:07;17.60;99.90
40589;DHT22;26297;49.450;6.640;2023-08-07T03:01:15;17.70;99.90
40589;DHT22;26297;49.450;6.640;2023-08-07T03:04:24;17.60;99.90
40589;DHT22;26297;49.450;6.640;2023-08-07T03:07:33;17.60;99.90
40589;DHT22;26297;49.450;6.640;2023-08-07T03:10:39;17.60;99.90
40589;DHT22;26297;49.450;6.640;2023-08-07T03:13:45;17.60;99.90
40589;DHT22;26297;49.450;6.640;2023-08-07T03:16:52;17.60;99.90
40589;DHT22;26297;49.450;6.640;2023-08-07T03:20:01;17.60;99.90
40589;DHT22;26297;49.450;6.640;2023-08-07T03:23:22;17.60;99.90
40589;DHT22;26297;49.450;6.640;2023-08-07T03:26:35;17.70;99.90
40589;DHT22;26297;49.450;6.640;2023-08-07T03:29:42;17.60;99.90
40589;DHT22;26297;49.450;6.640;2023-08-07T03:32:48;17.60;99.90
40589;DHT22;26297;49.450;6.640;2023-08-07T03:35:59;17.60;99.90
40589;DHT22;26297;49.450;6.640;2023-08-07T03:39:06;17.60;99.90
40589;DHT22;26297;49.450;6.640;2023-08-07T03:42:24;17.60;99.90
40589;DHT22;26297;49.450;6.640;2023-08-07T03:45:31;17.60;99.90
40589;DHT22;26297;49.450;6.640;2023-08-07T03:52:14;17.60;99.90
40589;DHT22;26297;49.450;6.640;2023-08-07T03:55:36;17.60;99.90
40589;DHT22;26297;49.450;6.640;2023-08-07T03:58:42;17.60;99.90
40589;DHT22;26297;49.450;6.640;2023-08-07T04:02:05;17.70;99.90
40589;DHT22;26297;49.450;6.640;2023-08-07T04:05:14;17.60;99.90
40589;DHT22;26297;49.450;6.640;2023-08-07T04:08:27;17.60;99.90
40589;DHT22;26297;49.450;6.640;2023-08-07T04:11:57;17.60;99.90
40589;DHT22;26297;49.450;6.640;2023-08-07T04:15:17;17.60;99.90
40589;DHT22;26297;49.450;6.640;2023-08-07T04:18:35;17.60;99.90
40589;DHT22;26297;49.450;6.640;2023-08-07T04:22:14;17.70;99.90
40589;DHT22;26297;49.450;6.640;2023-08-07T04:25:23;17.70;99.90
40589;DHT22;26297;49.450;6.640;2023-08-07T04:29:29;17.70;99.90
40589;DHT22;26297;49.450;6.640;2023-08-07T04:32:43;17.70;99.90
40589;DHT22;26297;49.450;6.640;2023-08-07T04:35:59;17.70;99.90
40589;DHT22;26297;49.450;6.640;2023-08-07T04:39:11;17.60;99.90
40589;DHT22;26297;49.450;6.640;2023-08-07T04:42:26;17.60;99.90
40589;DHT22;26297;49.450;6.640;2023-08-07T04:45:31;17.50;99.90
40589;DHT22;26297;49.450;6.640;2023-08-07T04:48:38;17.50;99.90
40589;DHT22;26297;49.450;6.640;2023-08-07T04:51:55;17.40;99.90
40589;DHT22;26297;49.450;6.640;2023-08-07T05:11:53;17.40;99.90
40589;DHT22;26297;49.450;6.640;2023-08-07T05:15:04;17.40;99.90
40589;DHT22;26297;49.450;6.640;2023-08-07T05:18:13;17.40;99.90
40589;DHT22;26297;49.450;6.640;2023-08-07T05:25:38;17.30;99.90
40589;DHT22;26297;49.450;6.640;2023-08-07T05:28:44;17.30;99.90
40589;DHT22;26297;49.450;6.640;2023-08-07T05:31:47;17.30;99.90
40589;DHT22;26297;49.450;6.640;2023-08-07T05:35:04;17.40;99.90
40589;DHT22;26297;49.450;6.640;2023-08-07T05:38:07;17.30;99.90
40589;DHT22;26297;49.450;6.640;2023-08-07T05:41:17;17.20;99.90
40589;DHT22;26297;49.450;6.640;2023-08-07T05:44:23;17.20;99.90
40589;DHT22;26297;49.450;6.640;2023-08-07T05:47:35;17.20;99.90
40589;DHT22;26297;49.450;6.640;2023-08-07T05:50:42;17.20;99.90
40589;DHT22;26297;49.450;6.640;2023-08-07T05:53:49;17.20;99.90
40589;DHT22;26297;49.450;6.640;2023-08-07T05:56:58;17.10;99.90
40589;DHT22;26297;49.450;6.640;2023-08-07T06:00:17;17.00;99.90
40589;DHT22;26297;49.450;6.640;2023-08-07T06:03:25;17.00;99.90
40589;DHT22;26297;49.450;6.640;2023-08-07T06:06:40;17.10;99.90
40589;DHT22;26297;49.450;6.640;2023-08-07T06:10:02;17.00;99.90
40589;DHT22;26297;49.450;6.640;2023-08-07T06:13:19;17.00;99.90
40589;DHT22;26297;49.450;6.640;2023-08-07T06:16:50;17.00;99.90
40589;DHT22;26297;49.450;6.640;2023-08-07T06:20:23;17.00;99.90
40589;DHT22;26297;49.450;6.640;2023-08-07T06:23:37;16.90;99.90
40589;DHT22;26297;49.450;6.640;2023-08-07T06:26:41;16.90;99.90
40589;DHT22;26297;49.450;6.640;2023-08-07T06:30:09;16.80;99.90
40589;DHT22;26297;49.450;6.640;2023-08-07T06:33:14;16.70;99.90
40589;DHT22;26297;49.450;6.640;2023-08-07T06:36:17;16.60;99.90
40589;DHT22;26297;49.450;6.640;2023-08-07T06:39:23;16.60;99.90
40589;DHT22;26297;49.450;6.640;2023-08-07T06:42:32;16.70;99.90
40589;DHT22;26297;49.450;6.640;2023-08-07T06:45:42;16.80;99.90
40589;DHT22;26297;49.450;6.640;2023-08-07T06:48:45;16.90;99.90
40589;DHT22;26297;49.450;6.640;2023-08-07T06:51:58;16.80;99.90
40589;DHT22;26297;49.450;6.640;2023-08-07T06:55:08;16.90;99.90
40589;DHT22;26297;49.450;6.640;2023-08-07T06:58:19;16.90;99.90
40589;DHT22;26297;49.450;6.640;2023-08-07T07:01:25;16.90;99.90
40589;DHT22;26297;49.450;6.640;2023-08-07T07:04:37;16.90;99.90
40589;DHT22;26297;49.450;6.640;2023-08-07T07:07:46;17.00;99.90
40589;DHT22;26297;49.450;6.640;2023-08-07T07:10:57;17.00;99.90
40589;DHT22;26297;49.450;6.640;2023-08-07T07:14:11;17.10;99.90
40589;DHT22;26297;49.450;6.640;2023-08-07T07:17:25;17.00;99.90
40589;DHT22;26297;49.450;6.640;2023-08-07T07:20:28;17.00;99.90
40589;DHT22;26297;49.450;6.640;2023-08-07T07:27:10;16.90;99.90
40589;DHT22;26297;49.450;6.640;2023-08-07T07:30:27;16.90;99.90
40589;DHT22;26297;49.450;6.640;2023-08-07T07:34:06;16.80;99.90
40589;DHT22;26297;49.450;6.640;2023-08-07T07:37:18;16.80;99.90
40589;DHT22;26297;49.450;6.640;2023-08-07T07:40:39;16.90;99.90
40589;DHT22;26297;49.450;6.640;2023-08-07T07:43:53;16.90;99.90
40589;DHT22;26297;49.450;6.640;2023-08-07T07:47:02;16.90;99.90
40589;DHT22;26297;49.450;6.640;2023-08-07T07:50:18;16.80;99.90
40589;DHT22;26297;49.450;6.640;2023-08-07T07:53:21;16.80;99.90
40589;DHT22;26297;49.450;6.640;2023-08-07T07:56:31;16.80;99.90
40589;DHT22;26297;49.450;6.640;2023-08-07T08:00:09;16.70;99.90
40589;DHT22;26297;49.450;6.640;2023-08-07T08:03:27;16.70;99.90
40589;DHT22;26297;49.450;6.640;2023-08-07T08:06:40;16.80;99.90
40589;DHT22;26297;49.450;6.640;2023-08-07T08:09:56;16.80;99.90
40589;DHT22;26297;49.450;6.640;2023-08-07T08:13:03;16.70;99.90
40589;DHT22;26297;49.450;6.640;2023-08-07T08:16:07;16.60;99.90
40589;DHT22;26297;49.450;6.640;2023-08-07T08:19:11;16.70;99.90
40589;DHT22;26297;49.450;6.640;2023-08-07T08:22:19;16.80;99.90
40589;DHT22;26297;49.450;6.640;2023-08-07T08:25:38;16.70;99.90
40589;DHT22;26297;49.450;6.640;2023-08-07T08:28:45;16.70;99.90
40589;DHT22;26297;49.450;6.640;2023-08-07T08:31:51;16.80;99.90
40589;DHT22;26297;49.450;6.640;2023-08-07T08:34:58;16.80;99.90
40589;DHT22;26297;49.450;6.640;2023-08-07T08:38:06;16.80;99.90
40589;DHT22;26297;49.450;6.640;2023-08-07T08:41:14;16.90;99.90
40589;DHT22;26297;49.450;6.640;2023-08-07T08:44:51;16.90;99.90
40589;DHT22;26297;49.450;6.640;2023-08-07T08:48:03;16.90;99.90
40589;DHT22;26297;49.450;6.640;2023-08-07T08:51:19;16.90;99.90
40589;DHT22;26297;49.450;6.640;2023-08-07T08:54:33;16.90;99.90
40589;DHT22;26297;49.450;6.640;2023-08-07T08:57:43;16.80;99.90
40589;DHT22;26297;49.450;6.640;2023-08-07T09:00:47;16.80;99.90
40589;DHT22;26297;49.450;6.640;2023-08-07T09:03:53;16.80;99.90
40589;DHT22;26297;49.450;6.640;2023-08-07T09:07:05;16.80;99.90
40589;DHT22;26297;49.450;6.640;2023-08-07T09:10:21;16.90;99.90
40589;DHT22;26297;49.450;6.640;2023-08-07T09:13:30;16.80;99.90
40589;DHT22;26297;49.450;6.640;2023-08-07T09:16:37;16.90;99.90
40589;DHT22;26297;49.450;6.640;2023-08-07T09:19:50;16.90;99.90
40589;DHT22;26297;49.450;6.640;2023-08-07T09:23:02;16.80;99.90
40589;DHT22;26297;49.450;6.640;2023-08-07T09:26:05;16.80;99.90
40589;DHT22;26297;49.450;6.640;2023-08-07T09:29:12;16.90;99.90
40589;DHT22;26297;49.450;6.640;2023-08-07T09:32:20;16.90;99.90
40589;DHT22;26297;49.450;6.640;2023-08-07T09:35:31;16.90;99.90
40589;DHT22;26297;49.450;6.640;2023-08-07T09:38:40;16.90;99.90
40589;DHT22;26297;49.450;6.640;2023-08-07T09:41:51;16.90;99.90
40589;DHT22;26297;49.450;6.640;2023-08-07T09:44:57;16.90;99.90
40589;DHT22;26297;49.450;6.640;2023-08-07T09:48:08;16.90;99.90
40589;DHT22;26297;49.450;6.640;2023-08-07T09:51:13;16.90;99.90
40589;DHT22;26297;49.450;6.640;2023-08-07T09:54:17;17.00;99.90
40589;DHT22;26297;49.450;6.640;2023-08-07T09:57:20;17.00;99.90
40589;DHT22;26297;49.450;6.640;2023-08-07T10:00:23;17.00;99.90
40589;DHT22;26297;49.450;6.640;2023-08-07T10:03:32;17.00;99.90
40589;DHT22;26297;49.450;6.640;2023-08-07T10:06:41;17.00;99.90
40589;DHT22;26297;49.450;6.640;2023-08-07T10:09:50;17.10;99.90
40589;DHT22;26297;49.450;6.640;2023-08-07T10:12:57;17.10;99.90
40589;DHT22;26297;49.450;6.640;2023-08-07T10:16:12;17.10;99.90
40589;DHT22;26297;49.450;6.640;2023-08-07T10:19:15;17.10;99.90
40589;DHT22;26297;49.450;6.640;2023-08-07T10:22:27;17.10;99.90
40589;DHT22;26297;49.450;6.640;2023-08-07T10:25:36;17.10;99.90
40589;DHT22;26297;49.450;6.640;2023-08-07T10:28:51;17.10;99.90
40589;DHT22;26297;49.450;6.640;2023-08-07T10:32:00;17.10;99.90
40589;DHT22;26297;49.450;6.640;2023-08-07T10:35:08;17.10;99.90
40589;DHT22;26297;49.450;6.640;2023-08-07T10:38:18;17.10;99.90
40589;DHT22;26297;49.450;6.640;2023-08-07T10:41:25;17.20;99.90
40589;DHT22;26297;49.450;6.640;2023-08-07T10:44:33;17.20;99.90
40589;DHT22;26297;49.450;6.640;2023-08-07T10:47:40;17.20;99.90
40589;DHT22;26297;49.450;6.640;2023-08-07T10:51:06;17.30;99.90
40589;DHT22;26297;49.450;6.640;2023-08-07T10:54:13;17.30;99.90
40589;DHT22;26297;49.450;6.640;2023-08-07T10:57:19;17.30;99.90
40589;DHT22;26297;49.450;6.640;2023-08-07T11:00:39;17.30;99.90
40589;DHT22;26297;49.450;6.640;2023-08-07T11:03:54;17.30;99.90
40589;DHT22;26297;49.450;6.640;2023-08-07T11:07:00;17.40;99.90
40589;DHT22;26297;49.450;6.640;2023-08-07T11:10:07;17.40;99.90
40589;DHT22;26297;49.450;6.640;2023-08-07T11:13:29;17.40;99.90
40589;DHT22;26297;49.450;6.640;2023-08-07T11:16:36;17.40;99.90
40589;DHT22;26297;49.450;6.640;2023-08-07T11:19:43;17.40;99.90
40589;DHT22;26297;49.450;6.640;2023-08-07T11:23:01;17.40;99.90
40589;DHT22;26297;49.450;6.640;2023-08-07T11:26:12;17.50;99.90
40589;DHT22;26297;49.450;6.640;2023-08-07T11:29:21;17.50;99.90
40589;DHT22;26297;49.450;6.640;2023-08-07T11:32:42;17.50;99.90
40589;DHT22;26297;49.450;6.640;2023-08-07T11:36:02;17.50;99.90
40589;DHT22;26297;49.450;6.640;2023-08-07T11:39:19;17.60;99.90
40589;DHT22;26297;49.450;6.640;2023-08-07T11:42:22;17.70;99.90
40589;DHT22;26297;49.450;6.640;2023-08-07T11:45:38;17.70;99.90
40589;DHT22;26297;49.450;6.640;2023-08-07T11:48:51;17.70;99.90
40589;DHT22;26297;49.450;6.640;2023-08-07T11:52:10;17.80;99.90
40589;DHT22;26297;49.450;6.640;2023-08-07T11:55:29;17.80;99.90
40589;DHT22;26297;49.450;6.640;2023-08-07T11:58:39;17.70;99.90
40589;DHT22;26297;49.450;6.640;2023-08-07T12:01:56;17.70;99.90
40589;DHT22;26297;49.450;6.640;2023-08-07T12:05:21;17.70;99.90
40589;DHT22;26297;49.450;6.640;2023-08-07T12:08:49;17.70;99.90
40589;DHT22;26297;49.450;6.640;2023-08-07T12:12:00;17.70;99.90
40589;DHT22;26297;49.450;6.640;2023-08-07T12:15:16;17.80;99.90
40589;DHT22;26297;49.450;6.640;2023-08-07T12:18:25;17.80;99.90
40589;DHT22;26297;49.450;6.640;2023-08-07T12:21:36;17.80;99.90
40589;DHT22;26297;49.450;6.640;2023-08-07T12:28:37;17.80;99.90
40589;DHT22;26297;49.450;6.640;2023-08-07T12:32:13;17.80;99.90
40589;DHT22;26297;49.450;6.640;2023-08-07T12:35:23;17.80;99.90
40589;DHT22;26297;49.450;6.640;2023-08-07T12:38:34;17.70;99.90
40589;DHT22;26297;49.450;6.640;2023-08-07T12:41:43;17.70;99.90
40589;DHT22;26297;49.450;6.640;2023-08-07T12:45:05;17.60;99.90
40589;DHT22;26297;49.450;6.640;2023-08-07T12:48:37;17.70;99.90
40589;DHT22;26297;49.450;6.640;2023-08-07T12:55:25;17.80;99.90
40589;DHT22;26297;49.450;6.640;2023-08-07T12:58:33;17.80;99.90
40589;DHT22;26297;49.450;6.640;2023-08-07T13:01:45;17.90;99.90
40589;DHT22;26297;49.450;6.640;2023-08-07T13:04:55;17.90;99.90
40589;DHT22;26297;49.450;6.640;2023-08-07T13:08:08;18.00;99.90
40589;DHT22;26297;49.450;6.640;2023-08-07T13:11:20;17.90;99.90
40589;DHT22;26297;49.450;6.640;2023-08-07T13:14:26;18.00;99.90
40589;DHT22;26297;49.450;6.640;2023-08-07T13:17:32;18.10;99.90
40589;DHT22;26297;49.450;6.640;2023-08-07T13:20:39;18.10;99.90
40589;DHT22;26297;49.450;6.640;2023-08-07T13:23:51;18.10;99.90
40589;DHT22;26297;49.450;6.640;2023-08-07T13:27:00;18.10;99.90
40589;DHT22;26297;49.450;6.640;2023-08-07T13:30:04;18.10;99.90
40589;DHT22;26297;49.450;6.640;2023-08-07T13:33:11;18.20;99.90
40589;DHT22;26297;49.450;6.640;2023-08-07T13:36:17;18.20;99.90
40589;DHT22;26297;49.450;6.640;2023-08-07T13:39:23;18.20;99.90
40589;DHT22;26297;49.450;6.640;2023-08-07T13:42:29;18.20;99.90
40589;DHT22;26297;49.450;6.640;2023-08-07T13:45:45;18.30;99.90
40589;DHT22;26297;49.450;6.640;2023-08-07T13:48:51;18.40;99.90
40589;DHT22;26297;49.450;6.640;2023-08-07T13:51:58;18.40;99.90
40589;DHT22;26297;49.450;6.640;2023-08-07T13:55:03;18.50;99.90
40589;DHT22;26297;49.450;6.640;2023-08-07T13:58:15;18.50;99.80
40589;DHT22;26297;49.450;6.640;2023-08-07T14:01:29;18.50;99.20
40589;DHT22;26297;49.450;6.640;2023-08-07T14:04:42;18.50;98.80
40589;DHT22;26297;49.450;6.640;2023-08-07T14:08:01;18.40;98.60
40589;DHT22;26297;49.450;6.640;2023-08-07T14:11:10;18.50;97.90
40589;DHT22;26297;49.450;6.640;2023-08-07T14:14:19;18.50;96.70
40589;DHT22;26297;49.450;6.640;2023-08-07T14:17:25;18.50;98.50
40589;DHT22;26297;49.450;6.640;2023-08-07T14:20:34;18.50;97.60
40589;DHT22;26297;49.450;6.640;2023-08-07T14:23:54;18.50;98.30
40589;DHT22;26297;49.450;6.640;2023-08-07T14:27:02;18.50;97.90
40589;DHT22;26297;49.450;6.640;2023-08-07T14:30:11;18.40;98.20
40589;DHT22;26297;49.450;6.640;2023-08-07T14:33:20;18.40;99.90
40589;DHT22;26297;49.450;6.640;2023-08-07T14:36:23;18.40;99.90
40589;DHT22;26297;49.450;6.640;2023-08-07T14:42:48;18.50;99.90
40589;DHT22;26297;49.450;6.640;2023-08-07T14:45:52;18.50;99.90
40589;DHT22;26297;49.450;6.640;2023-08-07T14:53:02;18.50;99.90
40589;DHT22;26297;49.450;6.640;2023-08-07T14:56:21;18.50;99.90
40589;DHT22;26297;49.450;6.640;2023-08-07T14:59:25;18.40;99.30
40589;DHT22;26297;49.450;6.640;2023-08-07T15:02:45;18.40;98.80
40589;DHT22;26297;49.450;6.640;2023-08-07T15:06:03;18.30;98.80
40589;DHT22;26297;49.450;6.640;2023-08-07T15:09:15;18.30;99.80
40589;DHT22;26297;49.450;6.640;2023-08-07T15:12:23;18.30;99.20
40589;DHT22;26297;49.450;6.640;2023-08-07T15:15:32;18.20;99.90
40589;DHT22;26297;49.450;6.640;2023-08-07T15:18:48;18.20;99.90
40589;DHT22;26297;49.450;6.640;2023-08-07T15:25:43;18.30;99.90
40589;DHT22;26297;49.450;6.640;2023-08-07T15:28:51;18.30;99.90
40589;DHT22;26297;49.450;6.640;2023-08-07T15:32:05;18.40;99.90
40589;DHT22;26297;49.450;6.640;2023-08-07T15:38:03;18.50;99.90
40589;DHT22;26297;49.450;6.640;2023-08-07T15:41:26;18.50;99.90
40589;DHT22;26297;49.450;6.640;2023-08-07T15:44:32;18.50;99.90
40589;DHT22;26297;49.450;6.640;2023-08-07T15:47:38;18.50;99.90
40589;DHT22;26297;49.450;6.640;2023-08-07T15:50:41;18.50;99.30
40589;DHT22;26297;49.450;6.640;2023-08-07T15:53:50;18.50;99.90
40589;DHT22;26297;49.450;6.640;2023-08-07T15:56:58;18.50;98.30
40589;DHT22;26297;49.450;6.640;2023-08-07T16:00:21;18.50;99.00
40589;DHT22;26297;49.450;6.640;2023-08-07T16:03:39;18.40;99.90
40589;DHT22;26297;49.450;6.640;2023-08-07T16:07:01;18.40;99.90
40589;DHT22;26297;49.450;6.640;2023-08-07T16:10:10;18.40;99.30
40589;DHT22;26297;49.450;6.640;2023-08-07T16:13:19;18.50;99.80
40589;DHT22;26297;49.450;6.640;2023-08-07T16:16:31;18.50;99.90
40589;DHT22;26297;49.450;6.640;2023-08-07T16:19:38;18.50;99.10
40589;DHT22;26297;49.450;6.640;2023-08-07T16:22:53;18.50;99.90
40589;DHT22;26297;49.450;6.640;2023-08-07T16:26:02;18.50;99.90
40589;DHT22;26297;49.450;6.640;2023-08-07T16:29:14;18.50;99.90
40589;DHT22;26297;49.450;6.640;2023-08-07T16:32:40;18.50;99.90
40589;DHT22;26297;49.450;6.640;2023-08-07T16:35:58;18.50;99.90
40589;DHT22;26297;49.450;6.640;2023-08-07T16:39:06;18.50;99.90
40589;DHT22;26297;49.450;6.640;2023-08-07T16:42:17;18.40;99.60
40589;DHT22;26297;49.450;6.640;2023-08-07T16:45:20;18.50;99.90
40589;DHT22;26297;49.450;6.640;2023-08-07T16:48:31;18.50;99.90
40589;DHT22;26297;49.450;6.640;2023-08-07T16:51:37;18.50;99.10
40589;DHT22;26297;49.450;6.640;2023-08-07T16:54:45;18.50;99.70
40589;DHT22;26297;49.450;6.640;2023-08-07T16:57:59;18.50;98.70
40589;DHT22;26297;49.450;6.640;2023-08-07T17:01:20;18.50;99.30
40589;DHT22;26297;49.450;6.640;2023-08-07T17:04:29;18.50;99.20
40589;DHT22;26297;49.450;6.640;2023-08-07T17:07:35;18.50;98.40
40589;DHT22;26297;49.450;6.640;2023-08-07T17:10:44;18.50;98.80
40589;DHT22;26297;49.450;6.640;2023-08-07T17:13:51;18.40;99.50
40589;DHT22;26297;49.450;6.640;2023-08-07T17:16:57;18.40;99.90
40589;DHT22;26297;49.450;6.640;2023-08-07T17:20:09;18.30;99.90
40589;DHT22;26297;49.450;6.640;2023-08-07T17:23:13;18.30;99.90
40589;DHT22;26297;49.450;6.640;2023-08-07T17:26:23;18.30;99.90
40589;DHT22;26297;49.450;6.640;2023-08-07T17:29:27;18.30;99.90
40589;DHT22;26297;49.450;6.640;2023-08-07T17:32:30;18.30;99.90
40589;DHT22;26297;49.450;6.640;2023-08-07T17:35:44;18.30;99.90
40589;DHT22;26297;49.450;6.640;2023-08-07T17:39:05;18.30;99.90
40589;DHT22;26297;49.450;6.640;2023-08-07T17:42:20;18.30;99.90
40589;DHT22;26297;49.450;6.640;2023-08-07T17:45:26;18.30;99.90
40589;DHT22;26297;49.450;6.640;2023-08-07T17:48:38;18.30;99.90
40589;DHT22;26297;49.450;6.640;2023-08-07T17:51:54;18.30;99.90
40589;DHT22;26297;49.450;6.640;2023-08-07T17:55:00;18.30;99.90
40589;DHT22;26297;49.450;6.640;2023-08-07T17:58:12;18.30;99.90
40589;DHT22;26297;49.450;6.640;2023-08-07T18:01:26;18.30;99.90
40589;DHT22;26297;49.450;6.640;2023-08-07T18:05:04;18.30;99.90
40589;DHT22;26297;49.450;6.640;2023-08-07T18:08:13;18.30;99.90
40589;DHT22;26297;49.450;6.640;2023-08-07T18:11:16;18.30;99.90
40589;DHT22;26297;49.450;6.640;2023-08-07T18:14:27;18.30;99.90
40589;DHT22;26297;49.450;6.640;2023-08-07T18:17:30;18.30;99.90
40589;DHT22;26297;49.450;6.640;2023-08-07T18:20:39;18.30;99.90
40589;DHT22;26297;49.450;6.640;2023-08-07T18:23:43;18.30;99.90
40589;DHT22;26297;49.450;6.640;2023-08-07T18:26:55;18.20;99.90
40589;DHT22;26297;49.450;6.640;2023-08-07T18:30:09;18.20;99.90
40589;DHT22;26297;49.450;6.640;2023-08-07T18:33:18;18.20;99.90
40589;DHT22;26297;49.450;6.640;2023-08-07T18:36:21;18.30;99.90
40589;DHT22;26297;49.450;6.640;2023-08-07T18:39:27;18.20;99.90
40589;DHT22;26297;49.450;6.640;2023-08-07T18:42:48;18.20;99.90
40589;DHT22;26297;49.450;6.640;2023-08-07T18:46:01;18.20;99.90
40589;DHT22;26297;49.450;6.640;2023-08-07T18:49:08;18.30;99.90
40589;DHT22;26297;49.450;6.640;2023-08-07T18:52:17;18.30;99.90
40589;DHT22;26297;49.450;6.640;2023-08-07T18:55:36;18.30;99.90
40589;DHT22;26297;49.450;6.640;2023-08-07T18:58:39;18.30;99.90
40589;DHT22;26297;49.450;6.640;2023-08-07T19:01:50;18.30;99.90
40589;DHT22;26297;49.450;6.640;2023-08-07T19:05:04;18.20;99.90
40589;DHT22;26297;49.450;6.640;2023-08-07T19:08:16;18.20;99.90
40589;DHT22;26297;49.450;6.640;2023-08-07T19:11:29;18.20;99.90
40589;DHT22;26297;49.450;6.640;2023-08-07T19:14:35;18.20;99.90
40589;DHT22;26297;49.450;6.640;2023-08-07T19:17:43;18.20;99.90
40589;DHT22;26297;49.450;6.640;2023-08-07T19:20:47;18.20;99.90
40589;DHT22;26297;49.450;6.640;2023-08-07T19:24:04;18.20;99.90
40589;DHT22;26297;49.450;6.640;2023-08-07T19:27:16;18.20;99.90
40589;DHT22;26297;49.450;6.640;2023-08-07T19:30:26;18.20;99.90
40589;DHT22;26297;49.450;6.640;2023-08-07T19:33:35;18.20;99.90
40589;DHT22;26297;49.450;6.640;2023-08-07T19:36:39;18.20;99.90
40589;DHT22;26297;49.450;6.640;2023-08-07T19:39:42;18.20;99.90
40589;DHT22;26297;49.450;6.640;2023-08-07T19:42:53;18.20;99.90
40589;DHT22;26297;49.450;6.640;2023-08-07T19:46:25;18.20;99.90
40589;DHT22;26297;49.450;6.640;2023-08-07T19:49:36;18.20;99.90
40589;DHT22;26297;49.450;6.640;2023-08-07T19:52:39;18.20;99.90
40589;DHT22;26297;49.450;6.640;2023-08-07T19:55:45;18.20;99.90
40589;DHT22;26297;49.450;6.640;2023-08-07T20:07:15;18.20;99.90
40589;DHT22;26297;49.450;6.640;2023-08-07T20:14:28;18.20;99.90
40589;DHT22;26297;49.450;6.640;2023-08-07T20:17:47;18.30;99.90
40589;DHT22;26297;49.450;6.640;2023-08-07T20:33:36;18.20;99.90
40589;DHT22;26297;49.450;6.640;2023-08-07T20:40:10;18.20;99.90
40589;DHT22;26297;49.450;6.640;2023-08-07T20:43:23;18.20;99.90
40589;DHT22;26297;49.450;6.640;2023-08-07T20:46:32;18.20;99.90
40589;DHT22;26297;49.450;6.640;2023-08-07T20:49:39;18.20;99.90
40589;DHT22;26297;49.450;6.640;2023-08-07T20:52:42;18.20;99.90
40589;DHT22;26297;49.450;6.640;2023-08-07T20:55:56;18.20;99.90
40589;DHT22;26297;49.450;6.640;2023-08-07T20:59:06;18.20;99.90
40589;DHT22;26297;49.450;6.640;2023-08-07T21:02:19;18.30;99.90
40589;DHT22;26297;49.450;6.640;2023-08-07T21:05:27;18.30;99.90
40589;DHT22;26297;49.450;6.640;2023-08-07T21:08:33;18.30;99.90
40589;DHT22;26297;49.450;6.640;2023-08-07T21:11:47;18.30;99.90
40589;DHT22;26297;49.450;6.640;2023-08-07T21:15:02;18.20;99.90
40589;DHT22;26297;49.450;6.640;2023-08-07T21:18:07;18.20;99.90
40589;DHT22;26297;49.450;6.640;2023-08-07T21:21:15;18.20;99.90
40589;DHT22;26297;49.450;6.640;2023-08-07T21:24:21;18.20;99.90
40589;DHT22;26297;49.450;6.640;2023-08-07T21:27:38;18.20;99.90
40589;DHT22;26297;49.450;6.640;2023-08-07T21:30:49;18.20;99.90
40589;DHT22;26297;49.450;6.640;2023-08-07T21:34:01;18.20;99.90